Time;durP1;ratioP1;P1;durP2;ratioP2;P2;SDS_P1;SDS_P2;PMS_P1;PMS_P2;Temp;Humidity;BMP_temperature;BMP_pressure;BME280_temperature;BME280_humidity;BME280_pressure;Samples;Min_cycle;Max_cycle;Signal;HPM_P1;HPM_P2
2021/05/18 00:01:47;;;;;;;2.70;1.67;;;;;;;11.85;74.65;98920.17;154153;1094;103211;-71
2021/05/18 00:04:51;;;;;;;1.73;1.50;;;;;;;11.85;75.98;98925.52;154561;1094;103148;-72
2021/05/18 00:07:57;;;;;;;1.95;1.60;;;;;;;11.79;76.23;98916.42;154603;1093;103115;-72
2021/05/18 00:14:28;;;;;;;1.77;1.60;;;;;;;11.74;74.90;98913.53;154598;1093;103189;-72
2021/05/18 00:17:32;;;;;;;1.90;1.40;;;;;;;11.77;74.71;98915.80;154529;1098;103557;-72
2021/05/18 00:20:36;;;;;;;1.70;1.50;;;;;;;11.82;74.72;98914.38;154526;1093;103127;-73
2021/05/18 00:23:40;;;;;;;1.70;1.60;;;;;;;11.87;74.83;98911.97;154594;1098;103112;-72
2021/05/18 00:26:43;;;;;;;2.10;1.70;;;;;;;11.82;76.04;98909.03;154588;1093;103256;-73
2021/05/18 00:29:47;;;;;;;2.40;1.90;;;;;;;11.81;75.11;98910.08;154592;1098;103282;-73
2021/05/18 00:32:51;;;;;;;2.07;1.50;;;;;;;11.79;75.34;98903.06;154540;1093;103128;-72
2021/05/18 00:35:54;;;;;;;2.63;1.60;;;;;;;11.82;74.93;98909.89;154139;1098;103563;-73
2021/05/18 00:38:58;;;;;;;2.05;1.85;;;;;;;11.81;75.40;98918.09;154579;1093;103193;-73
2021/05/18 00:42:02;;;;;;;2.63;1.90;;;;;;;11.79;74.24;98911.08;154544;1098;103243;-73
2021/05/18 00:45:07;;;;;;;2.83;1.77;;;;;;;11.77;75.47;98906.96;154606;1098;103119;-76
2021/05/18 00:48:12;;;;;;;2.60;1.60;;;;;;;11.72;75.70;98904.03;154624;1098;103238;-75
2021/05/18 00:51:15;;;;;;;2.63;1.70;;;;;;;11.74;75.84;98908.19;154206;1099;103177;-74
2021/05/18 00:54:23;;;;;;;3.53;1.70;;;;;;;11.73;75.88;98905.70;154176;1093;103189;-75
2021/05/18 01:00:48;;;;;;;;;;;;;;;11.69;76.62;98901.77;154654;1092;103243;-73
2021/05/18 01:03:53;;;;;;;2.40;2.20;;;;;;;11.68;75.02;98911.64;154578;1098;103240;-73
2021/05/18 01:06:57;;;;;;;2.90;1.80;;;;;;;11.69;75.43;98907.92;154680;1093;103180;-72
2021/05/18 01:10:00;;;;;;;1.77;1.50;;;;;;;11.65;74.96;98903.17;154665;1093;103196;-72
2021/05/18 01:13:04;;;;;;;2.37;1.90;;;;;;;11.67;75.86;98917.98;154652;1098;103316;-73
2021/05/18 01:16:09;;;;;;;2.00;1.60;;;;;;;11.69;76.41;98926.63;154242;1093;103183;-72
2021/05/18 01:19:14;;;;;;;2.13;1.70;;;;;;;11.69;75.93;98926.63;154578;1098;103195;-72
2021/05/18 01:22:17;;;;;;;3.47;1.50;;;;;;;11.66;76.37;98927.00;154575;1094;103155;-72
2021/05/18 01:25:22;;;;;;;2.40;1.70;;;;;;;11.66;75.09;98908.30;154588;1094;103107;-72
2021/05/18 01:28:27;;;;;;;1.50;1.40;;;;;;;11.71;77.16;98913.08;154221;1098;103345;-72
2021/05/18 01:31:32;;;;;;;2.53;1.43;;;;;;;11.72;75.54;98914.72;154674;1098;103199;-72
2021/05/18 01:34:36;;;;;;;1.83;1.50;;;;;;;11.64;76.09;98918.36;154601;1098;103189;-73
2021/05/18 01:37:42;;;;;;;1.57;1.30;;;;;;;11.58;75.61;98914.61;154519;1093;103464;-72
2021/05/18 01:44:13;;;;;;;1.87;1.20;;;;;;;11.59;75.88;98910.11;154540;1098;103152;-70
2021/05/18 01:47:17;;;;;;;2.00;1.30;;;;;;;11.61;75.39;98917.94;154123;1098;103257;-70
2021/05/18 01:50:26;;;;;;;1.20;1.10;;;;;;;11.62;75.49;98920.40;154489;1098;103189;-72
2021/05/18 01:53:30;;;;;;;2.03;1.30;;;;;;;11.63;77.09;98921.25;154089;1098;103205;-71
2021/05/18 01:59:55;;;;;;;1.60;1.10;;;;;;;11.58;75.80;98930.64;154564;1098;103128;-71
2021/05/18 02:03:00;;;;;;;1.40;1.00;;;;;;;11.56;75.47;98921.17;154618;1098;103189;-72
2021/05/18 02:06:07;;;;;;;1.33;1.10;;;;;;;11.54;75.81;98917.88;154606;1098;103232;-72
2021/05/18 02:09:21;;;;;;;1.40;1.20;;;;;;;11.53;76.01;98921.58;154562;1093;103119;-72
2021/05/18 02:12:25;;;;;;;1.67;1.30;;;;;;;11.57;75.91;98917.50;154602;1093;103127;-72
2021/05/18 02:15:39;;;;;;;1.30;1.10;;;;;;;11.56;75.59;98923.84;154577;1098;103260;-72
2021/05/18 02:18:59;;;;;;;1.40;1.05;;;;;;;11.56;75.81;98926.52;154663;1098;103141;-74
2021/05/18 02:24:35;;;;;;;1.20;1.10;;;;;;;11.55;76.05;98927.55;154568;1098;103122;-72
2021/05/18 02:25:44;;;;;;;1.47;1.20;;;;;;;11.55;76.07;98931.04;154560;1093;103188;-72
2021/05/18 02:28:59;;;;;;;2.00;1.40;;;;;;;11.52;75.24;98927.92;154589;1093;103099;-73
2021/05/18 02:32:03;;;;;;;1.40;1.17;;;;;;;11.49;75.99;98933.63;154478;1098;103273;-71
2021/05/18 02:35:21;;;;;;;2.07;1.30;;;;;;;11.50;76.56;98937.98;154589;1098;103487;-73
2021/05/18 02:38:25;;;;;;;1.60;1.10;;;;;;;11.52;76.46;98930.59;154579;1098;103203;-75
2021/05/18 02:41:30;;;;;;;1.80;1.33;;;;;;;11.53;75.78;98929.59;154571;1098;103192;-75
2021/05/18 02:44:41;;;;;;;2.97;1.40;;;;;;;11.52;76.30;98930.59;154589;1093;103130;-75
2021/05/18 02:51:14;;;;;;;1.97;1.20;;;;;;;11.48;76.71;98937.34;154153;1098;103374;-73
2021/05/18 02:54:26;;;;;;;1.73;1.50;;;;;;;11.49;75.94;98944.32;154592;1098;103141;-75
2021/05/18 02:57:34;;;;;;;3.20;1.50;;;;;;;11.47;77.61;98949.03;154602;1093;103122;-73
2021/05/18 03:00:38;;;;;;;2.43;1.33;;;;;;;11.45;76.49;98932.37;154580;1098;103121;-75
2021/05/18 03:03:42;;;;;;;2.20;1.50;;;;;;;11.47;76.92;98939.19;154542;1098;103187;-74
2021/05/18 03:06:49;;;;;;;2.17;1.50;;;;;;;11.49;77.20;98931.81;154643;1093;103241;-73
2021/05/18 03:09:52;;;;;;;1.83;1.50;;;;;;;11.52;76.70;98938.61;154225;1098;103207;-73
2021/05/18 03:12:56;;;;;;;2.50;1.60;;;;;;;11.52;77.85;98942.09;154629;1093;103135;-73
2021/05/18 03:16:00;;;;;;;1.50;1.40;;;;;;;11.52;76.97;98947.44;154600;1093;103109;-75
2021/05/18 03:19:04;;;;;;;2.10;1.60;;;;;;;11.55;76.17;98954.27;154559;1093;103269;-76
2021/05/18 03:22:08;;;;;;;1.90;1.60;;;;;;;11.57;77.04;98945.03;154592;1098;103111;-76
2021/05/18 03:25:14;;;;;;;1.73;1.40;;;;;;;11.59;76.87;98947.52;154622;1098;103215;-75
2021/05/18 03:28:17;;;;;;;2.07;1.57;;;;;;;11.59;76.67;98952.86;154630;1093;103122;-75
2021/05/18 03:34:42;;;;;;;1.93;1.60;;;;;;;11.64;75.83;98945.08;154596;1098;103215;-74
2021/05/18 03:37:51;;;;;;;1.80;1.60;;;;;;;11.70;77.28;98946.16;154640;1094;103136;-73
2021/05/18 03:40:58;;;;;;;3.05;1.50;;;;;;;11.73;76.95;98946.59;154566;1093;103128;-76
2021/05/18 03:44:09;;;;;;;2.37;1.70;;;;;;;11.81;77.00;98942.14;154555;1093;103138;-73
2021/05/18 03:54:23;;;;;;;3.37;1.87;;;;;;;11.76;76.28;98951.57;153981;1101;103378;-73
2021/05/18 04:04:15;;;;;;;2.53;1.53;;;;;;;11.79;77.14;98969.88;154604;1098;103122;-74
2021/05/18 04:11:00;;;;;;;3.33;1.70;;;;;;;11.81;76.88;98976.89;154614;1098;103464;-74
2021/05/18 04:17:26;;;;;;;2.47;1.77;;;;;;;11.92;76.90;98981.75;154535;1098;103189;-75
2021/05/18 04:20:39;;;;;;;2.40;1.57;;;;;;;12.00;77.39;98984.27;154487;1098;103188;-74
2021/05/18 04:23:50;;;;;;;3.20;1.90;;;;;;;11.98;77.62;98979.11;154607;1098;103286;-73
2021/05/18 04:38:34;;;;;;;1.90;1.60;;;;;;;11.96;77.23;98985.69;154586;1098;103551;-76
2021/05/18 04:50:56;;;;;;;2.13;1.70;;;;;;;12.01;76.34;99009.16;154544;1098;103125;-73
2021/05/18 04:54:52;;;;;;;1.97;1.70;;;;;;;12.01;76.95;98999.31;154633;1093;103107;-72
2021/05/18 05:01:15;;;;;;;;;;;;;;;12.08;76.51;99007.37;154613;1098;103103;-76
2021/05/18 05:06:11;;;;;;;2.57;2.00;;;;;;;12.05;76.19;99007.74;154568;1098;103126;-75
2021/05/18 05:07:53;;;;;;;2.07;1.80;;;;;;;12.00;76.46;99008.33;154547;1098;103188;-74
2021/05/18 05:14:23;;;;;;;2.00;1.80;;;;;;;12.08;76.31;99012.72;154598;1093;103194;-73
2021/05/18 05:17:26;;;;;;;2.73;1.70;;;;;;;12.01;76.85;99004.66;154580;1093;103179;-75
2021/05/18 05:20:30;;;;;;;3.90;1.70;;;;;;;12.05;76.65;99016.61;154536;1098;103237;-75
2021/05/18 05:23:34;;;;;;;1.60;1.50;;;;;;;12.08;76.43;99004.70;153974;1101;103170;-74
2021/05/18 05:26:38;;;;;;;2.77;1.80;;;;;;;12.15;76.64;99022.45;154612;1098;103125;-75
2021/05/18 05:29:42;;;;;;;3.07;1.77;;;;;;;12.20;76.70;99021.03;154012;1093;103289;-73
2021/05/18 05:32:45;;;;;;;2.33;1.93;;;;;;;12.23;76.34;99031.36;154611;1093;103098;-73
2021/05/18 05:35:50;;;;;;;3.73;2.00;;;;;;;12.21;76.66;99014.67;154583;1098;103563;-72
2021/05/18 05:39:00;;;;;;;2.97;2.00;;;;;;;12.21;77.04;99022.70;154626;1093;103112;-73
2021/05/18 05:42:05;;;;;;;2.77;1.97;;;;;;;12.28;76.23;99011.03;154596;1098;103192;-72
2021/05/18 05:45:11;;;;;;;2.27;1.90;;;;;;;12.44;76.46;99015.25;154526;1093;103096;-74
2021/05/18 05:48:14;;;;;;;3.10;1.77;;;;;;;12.52;76.67;99014.27;154637;1098;103240;-75
2021/05/18 05:51:18;;;;;;;4.13;2.20;;;;;;;12.59;75.48;99009.80;153860;1101;103107;-71
2021/05/18 05:54:23;;;;;;;3.57;2.10;;;;;;;12.82;75.74;99011.34;154429;1093;103220;-71
2021/05/18 05:57:26;;;;;;;3.23;2.20;;;;;;;12.95;75.20;99011.41;154543;1094;103125;-70
2021/05/18 06:00:30;;;;;;;3.33;2.27;;;;;;;13.06;75.66;99012.70;154441;1093;103206;-71
2021/05/18 06:03:34;;;;;;;2.37;2.10;;;;;;;13.12;75.41;99017.25;153952;1098;103107;-70
2021/05/18 06:06:37;;;;;;;3.63;2.30;;;;;;;13.17;74.60;99025.52;154422;1098;103131;-71
2021/05/18 06:09:41;;;;;;;2.67;2.10;;;;;;;13.16;74.87;99024.70;153804;1093;103138;-71
2021/05/18 06:12:56;;;;;;;2.67;2.43;;;;;;;13.19;75.20;99023.47;154680;1098;103189;-72
2021/05/18 06:36:59;;;;;;;2.90;1.95;;;;;;;13.92;72.98;99022.84;153980;1096;103321;-70
2021/05/18 06:43:29;;;;;;;3.70;2.60;;;;;;;13.97;73.32;99030.27;153870;1093;103197;-70
2021/05/18 06:46:46;;;;;;;3.90;2.70;;;;;;;13.92;72.83;99028.21;154434;1098;103195;-73
2021/05/18 06:49:57;;;;;;;4.37;3.10;;;;;;;13.74;73.30;99043.04;154440;1098;103182;-70
2021/05/18 06:53:01;;;;;;;4.73;3.77;;;;;;;13.59;73.39;99039.70;154452;1098;103168;-72
2021/05/18 06:56:06;;;;;;;3.77;2.87;;;;;;;13.51;73.97;99034.51;154482;1098;103091;-69
2021/05/18 07:02:31;;;;;;;4.60;3.53;;;;;;;13.64;73.89;99047.95;154455;1098;103189;-71
2021/05/18 07:05:38;;;;;;;4.17;3.50;;;;;;;13.65;73.44;99060.33;154558;1093;103278;-70
2021/05/18 07:08:55;;;;;;;5.40;3.90;;;;;;;13.60;73.56;99057.42;154497;1098;103176;-69
2021/05/18 07:11:59;;;;;;;5.33;4.07;;;;;;;13.49;73.80;99060.69;154844;1093;103042;-71
2021/05/18 07:15:03;;;;;;;5.00;4.17;;;;;;;13.37;73.87;99062.30;154443;1098;103107;-70
2021/05/18 07:18:08;;;;;;;5.00;3.97;;;;;;;13.38;73.36;99072.01;154485;1093;103112;-71
2021/05/18 07:21:12;;;;;;;7.60;5.03;;;;;;;13.31;73.96;99088.86;154451;1098;103267;-70
2021/05/18 07:24:21;;;;;;;5.87;4.40;;;;;;;13.28;74.25;99078.53;154679;1098;103117;-70
2021/05/18 07:27:25;;;;;;;5.37;4.50;;;;;;;13.29;73.65;99072.13;154690;1093;103193;-71
2021/05/18 07:30:28;;;;;;;7.27;4.60;;;;;;;13.29;73.79;99080.16;154651;1093;103544;-70
2021/05/18 07:33:33;;;;;;;5.77;3.97;;;;;;;13.29;73.75;99082.02;154389;1098;103186;-72
2021/05/18 07:36:37;;;;;;;4.73;3.77;;;;;;;13.29;73.95;99082.84;154496;1098;103192;-70
2021/05/18 07:39:40;;;;;;;5.00;3.37;;;;;;;13.37;74.36;99079.20;154701;1098;103145;-71
2021/05/18 07:42:44;;;;;;;5.67;3.90;;;;;;;13.27;73.90;99092.11;154468;1094;103188;-72
2021/05/18 07:45:53;;;;;;;6.03;4.30;;;;;;;13.26;74.49;99099.33;154512;1094;103212;-71
2021/05/18 07:49:20;;;;;;;6.07;3.90;;;;;;;13.11;74.55;99091.42;154527;1098;103123;-71
2021/05/18 07:59:22;;;;;;;3.55;3.25;;;;;;;13.21;74.43;99106.31;154711;1093;103146;-72
2021/05/18 08:05:17;;;;;;;5.13;4.20;;;;;;;13.22;74.35;99094.55;154630;1093;103473;-71
2021/05/18 08:05:57;;;;;;;13.23;10.87;;;;;;;13.25;74.40;99097.66;154718;1098;103129;-71
2021/05/18 08:09:01;;;;;;;28.05;22.60;;;;;;;13.34;74.30;99091.16;154324;1098;103213;-71
2021/05/18 08:12:06;;;;;;;8.87;6.97;;;;;;;13.37;73.89;99099.81;154796;1098;103200;-72
2021/05/18 08:19:05;;;;;;;4.73;3.90;;;;;;;13.53;73.77;99091.44;154668;1098;103189;-71
2021/05/18 10:35:43;;;;;;;6.97;5.03;;;;;;;13.47;73.81;99168.10;153903;1096;103110;-72
2021/05/18 10:38:48;;;;;;;6.73;4.60;;;;;;;13.60;73.63;99174.53;153863;1093;103101;-75
2021/05/18 10:41:53;;;;;;;6.67;4.77;;;;;;;13.66;73.56;99171.88;153984;1101;103293;-71
2021/05/18 10:44:57;;;;;;;6.60;5.30;;;;;;;13.65;73.34;99183.64;154042;1093;103145;-73
2021/05/18 10:48:00;;;;;;;7.90;6.07;;;;;;;13.61;73.53;99184.25;154024;1100;103210;-71
2021/05/18 10:51:25;;;;;;;6.60;5.60;;;;;;;13.58;73.58;99182.77;153980;1101;103192;-69
2021/05/18 10:54:38;;;;;;;7.85;5.90;;;;;;;13.62;73.55;99181.34;153914;1101;103195;-71
2021/05/18 10:57:41;;;;;;;6.70;4.63;;;;;;;13.63;73.49;99191.05;153960;1101;103283;-70
2021/05/18 11:00:45;;;;;;;10.50;6.17;;;;;;;13.61;73.71;99190.43;153973;1094;103125;-71
2021/05/18 11:03:49;;;;;;;5.63;4.47;;;;;;;13.68;73.22;99191.30;154014;1094;103188;-72
2021/05/18 11:06:54;;;;;;;6.57;4.87;;;;;;;13.75;73.38;99189.45;154015;1100;103116;-73
2021/05/18 11:09:57;;;;;;;6.83;5.10;;;;;;;13.85;73.30;99190.94;154020;1100;103125;-72
2021/05/18 11:13:04;;;;;;;5.53;4.97;;;;;;;13.81;72.42;99189.69;153979;1093;103288;-73
2021/05/18 11:16:16;;;;;;;4.17;3.77;;;;;;;13.62;72.56;99184.02;154032;1096;103141;-73
2021/05/18 11:19:20;;;;;;;4.40;3.93;;;;;;;13.67;72.92;99189.63;153997;1101;103123;-73
2021/05/18 11:25:43;;;;;;;4.90;3.90;;;;;;;13.75;72.16;99205.53;153986;1101;103112;-74
2021/05/18 11:28:49;;;;;;;4.43;3.63;;;;;;;13.81;72.89;99197.73;154016;1093;103130;-74
2021/05/18 11:31:52;;;;;;;4.07;3.50;;;;;;;13.84;72.89;99191.98;154017;1101;103211;-73
2021/05/18 11:34:58;;;;;;;3.90;3.40;;;;;;;13.93;72.23;99201.48;153976;1093;103116;-74
2021/05/18 11:38:05;;;;;;;9.53;7.10;;;;;;;13.86;72.85;99195.28;154030;1093;103222;-72
2021/05/18 11:41:08;;;;;;;5.30;3.53;;;;;;;13.81;72.18;99192.36;154220;1101;103141;-73
2021/05/18 11:44:14;;;;;;;3.63;3.10;;;;;;;13.88;72.61;99190.55;154068;1093;103210;-72
2021/05/18 11:47:28;;;;;;;3.93;3.00;;;;;;;13.86;72.00;99206.83;154260;1101;103179;-72
2021/05/18 11:50:32;;;;;;;3.67;2.80;;;;;;;13.83;72.31;99195.67;154067;1093;103119;-72
2021/05/18 11:53:39;;;;;;;4.83;3.10;;;;;;;13.81;72.11;99200.41;154210;1093;103480;-71
2021/05/18 11:56:43;;;;;;;3.57;2.90;;;;;;;13.81;72.35;99192.36;154268;1093;103130;-71
2021/05/18 11:59:47;;;;;;;3.90;2.90;;;;;;;13.94;72.08;99193.23;154055;1101;103219;-70
2021/05/18 12:03:03;;;;;;;4.00;2.70;;;;;;;14.06;71.67;99189.97;153894;1093;103132;-72
2021/05/18 12:06:09;;;;;;;3.30;2.40;;;;;;;14.10;71.85;99197.41;153898;1101;103192;-69
2021/05/18 12:09:14;;;;;;;3.83;2.33;;;;;;;14.09;70.58;99209.18;153797;1093;103192;-71
2021/05/18 12:12:18;;;;;;;3.30;2.75;;;;;;;14.07;70.80;99195.14;153854;1093;103167;-71
2021/05/18 12:15:22;;;;;;;2.70;2.33;;;;;;;13.98;71.25;99204.39;153855;1101;103277;-72
2021/05/18 12:18:31;;;;;;;3.03;2.33;;;;;;;14.00;70.45;99201.52;153955;1101;103215;-71
2021/05/18 12:21:34;;;;;;;3.07;2.20;;;;;;;14.05;71.02;99199.89;153941;1093;103156;-73
2021/05/18 12:24:43;;;;;;;3.50;2.57;;;;;;;14.01;71.01;99204.00;154066;1093;103215;-71
2021/05/18 12:27:47;;;;;;;4.90;3.10;;;;;;;14.08;71.09;99199.47;153865;1101;103121;-70
2021/05/18 12:30:50;;;;;;;3.87;3.13;;;;;;;14.16;71.11;99203.81;153907;1101;103479;-72
2021/05/18 12:33:54;;;;;;;3.23;2.60;;;;;;;14.28;70.91;99210.27;153876;1093;103104;-70
2021/05/18 12:36:58;;;;;;;3.83;2.77;;;;;;;14.23;69.74;99207.35;153826;1093;103134;-70
2021/05/18 12:40:04;;;;;;;3.27;2.17;;;;;;;14.22;70.37;99211.08;153970;1100;103115;-72
2021/05/18 12:43:14;;;;;;;5.27;2.40;;;;;;;14.26;70.42;99206.11;154048;1093;103272;-70
2021/05/18 12:46:17;;;;;;;3.00;2.13;;;;;;;14.28;70.46;99199.53;153987;1093;103244;-70
2021/05/18 12:49:35;;;;;;;2.60;2.00;;;;;;;14.43;70.13;99211.94;153818;1101;103188;-72
2021/05/18 12:52:41;;;;;;;3.10;2.20;;;;;;;14.52;70.16;99206.17;153875;1094;103224;-72
2021/05/18 12:55:44;;;;;;;2.73;2.03;;;;;;;14.57;69.57;99204.75;153949;1094;103193;-71
2021/05/18 12:58:48;;;;;;;1.87;1.77;;;;;;;14.59;69.02;99208.06;153994;1093;103128;-71
2021/05/18 13:01:51;;;;;;;3.20;2.33;;;;;;;14.45;69.70;99216.09;153793;1101;103273;-71
2021/05/18 13:05:07;;;;;;;3.97;2.70;;;;;;;14.25;69.84;99225.94;153953;1093;103123;-71
2021/05/18 13:08:15;;;;;;;5.63;3.85;;;;;;;14.08;70.40;99226.29;153867;1101;103129;-71
2021/05/18 13:12:11;;;;;;;7.43;5.40;;;;;;;14.06;70.73;99225.66;153904;1101;103210;-71
2021/05/18 13:15:00;;;;;;;7.20;5.40;;;;;;;13.97;70.85;99234.09;153853;1093;103199;-71
2021/05/18 13:18:07;;;;;;;10.77;6.60;;;;;;;13.95;70.82;99231.59;153912;1101;103187;-72
2021/05/18 13:21:21;;;;;;;5.97;4.33;;;;;;;13.95;70.86;99234.28;153905;1101;103579;-71
2021/05/18 13:26:25;;;;;;;3.93;3.00;;;;;;;13.89;70.62;99237.77;153985;1101;103247;-71
2021/05/18 13:27:57;;;;;;;3.63;2.60;;;;;;;13.81;70.89;99245.98;154089;1093;103183;-71
2021/05/18 13:31:01;;;;;;;3.87;2.73;;;;;;;13.72;71.07;99242.63;153936;1101;103148;-69
2021/05/18 13:34:06;;;;;;;2.60;2.40;;;;;;;13.62;71.05;99258.25;153918;1093;103221;-71
2021/05/18 13:37:09;;;;;;;4.00;3.10;;;;;;;13.53;71.07;99249.56;153974;1101;103192;-70
2021/05/18 13:40:15;;;;;;;3.13;2.77;;;;;;;13.49;71.43;99249.13;153985;1093;103544;-69
2021/05/18 13:43:19;;;;;;;5.20;2.87;;;;;;;13.43;71.34;99252.56;153788;1093;103117;-71
2021/05/18 13:46:23;;;;;;;5.40;3.95;;;;;;;13.43;71.71;99254.42;154557;1093;103129;-74
2021/05/18 13:49:27;;;;;;;16.93;12.10;;;;;;;13.34;71.82;99251.09;154040;1093;103247;-73
2021/05/18 13:52:30;;;;;;;18.67;11.50;;;;;;;13.36;71.79;99251.72;154005;1093;103154;-73
2021/05/18 13:55:35;;;;;;;6.63;4.70;;;;;;;13.38;72.05;99252.34;154002;1093;103151;-74
2021/05/18 13:58:38;;;;;;;6.03;4.60;;;;;;;13.45;71.96;99257.73;154089;1093;103240;-74
2021/05/18 14:01:42;;;;;;;11.50;7.65;;;;;;;13.48;72.12;99246.63;154124;1100;103112;-71
2021/05/18 14:04:45;;;;;;;12.53;8.10;;;;;;;13.44;71.90;99245.38;154113;1093;103295;-70
2021/05/18 14:08:19;;;;;;;11.60;7.00;;;;;;;13.42;71.99;99247.42;154000;1093;103247;-77
2021/05/18 14:11:23;;;;;;;25.47;13.07;;;;;;;13.41;72.18;99248.44;154103;1100;103211;-76
2021/05/18 14:14:27;;;;;;;12.63;7.67;;;;;;;13.42;72.48;99255.47;153957;1100;103994;-70
2021/05/18 14:17:31;;;;;;;6.97;5.10;;;;;;;13.43;72.20;99255.24;153861;1100;103142;-71
2021/05/18 14:20:34;;;;;;;5.30;4.20;;;;;;;13.34;72.44;99257.27;154034;1100;103259;-72
2021/05/18 14:23:42;;;;;;;5.20;3.43;;;;;;;13.27;72.40;99255.53;153990;1093;103211;-76
2021/05/18 14:26:46;;;;;;;4.37;3.40;;;;;;;13.21;72.98;99249.09;154081;1093;103101;-73
2021/05/18 14:29:50;;;;;;;6.90;3.50;;;;;;;13.13;73.00;99250.07;154015;1100;103110;-74
2021/05/18 14:32:54;;;;;;;5.83;3.40;;;;;;;13.12;72.85;99252.94;153997;1093;103121;-73
2021/05/18 14:35:57;;;;;;;3.73;3.30;;;;;;;13.15;72.45;99249.88;154009;1093;103186;-73
2021/05/18 14:39:04;;;;;;;4.77;3.10;;;;;;;13.13;72.90;99259.97;154024;1100;103212;-76
2021/05/18 14:45:35;;;;;;;6.87;3.70;;;;;;;13.02;72.89;99257.81;154101;1093;103243;-72
2021/05/18 14:55:21;;;;;;;4.65;3.30;;;;;;;12.94;73.24;99248.89;154072;1101;103113;-77
2021/05/18 14:58:25;;;;;;;8.70;5.27;;;;;;;12.92;73.36;99256.28;153964;1093;103124;-72
2021/05/18 15:01:28;;;;;;;21.10;11.33;;;;;;;12.90;72.97;99261.00;154136;1101;103103;-71
2021/05/18 15:04:34;;;;;;;16.20;9.20;;;;;;;12.88;73.52;99257.70;153909;1093;103182;-72
2021/05/18 15:07:41;;;;;;;8.53;5.13;;;;;;;12.89;73.33;99269.22;155708;1101;103193;-73
2021/05/18 15:10:47;;;;;;;6.37;4.07;;;;;;;12.84;73.31;99261.78;154101;1101;103190;-70
2021/05/18 15:13:50;;;;;;;7.53;4.63;;;;;;;12.81;74.26;99272.86;153858;1093;103594;-70
2021/05/18 15:16:54;;;;;;;5.57;3.03;;;;;;;12.83;73.63;99261.97;154107;1100;103218;-71
2021/05/18 15:19:59;;;;;;;4.75;3.50;;;;;;;12.92;73.42;99258.14;154855;1100;103139;-70
2021/05/18 15:23:03;;;;;;;6.23;4.47;;;;;;;12.94;73.53;99269.48;153793;1100;103259;-71
2021/05/18 15:26:07;;;;;;;7.50;5.57;;;;;;;12.83;73.93;99260.11;154887;1100;103195;-71
2021/05/18 15:29:10;;;;;;;6.27;4.10;;;;;;;12.81;73.52;99272.86;153942;1093;103132;-72
2021/05/18 15:32:15;;;;;;;9.93;6.17;;;;;;;12.76;73.21;99260.06;153724;1100;103221;-72
2021/05/18 15:35:18;;;;;;;6.20;4.43;;;;;;;12.76;73.84;99267.27;153931;1100;103157;-75
2021/05/18 15:38:22;;;;;;;5.10;3.50;;;;;;;12.76;73.86;99277.98;154054;1093;103272;-72
2021/05/18 15:41:25;;;;;;;5.50;3.60;;;;;;;12.75;73.43;99278.98;154064;1093;103187;-75
2021/05/18 15:44:29;;;;;;;7.23;4.10;;;;;;;12.72;73.79;99274.00;154012;1100;103190;-73
2021/05/18 15:47:33;;;;;;;4.80;3.13;;;;;;;12.67;73.38;99287.15;154003;1093;103184;-74
2021/05/18 15:50:37;;;;;;;4.90;3.00;;;;;;;12.66;73.67;99280.95;153997;1100;103176;-74
2021/05/18 15:53:40;;;;;;;4.57;3.30;;;;;;;12.61;73.91;99282.56;153977;1100;103199;-74
2021/05/18 15:56:44;;;;;;;6.00;3.60;;;;;;;12.61;73.20;99278.03;154007;1100;103128;-74
2021/05/18 15:59:49;;;;;;;7.03;6.07;;;;;;;12.62;74.07;99279.67;153997;1100;103237;-74
2021/05/18 16:02:53;;;;;;;40.50;24.57;;;;;;;12.59;73.82;99288.09;153954;1100;103218;-71
2021/05/18 16:06:00;;;;;;;6.30;4.93;;;;;;;12.54;73.99;99288.65;153990;1100;103500;-71
2021/05/18 16:09:05;;;;;;;4.00;3.00;;;;;;;12.51;74.29;99283.70;153894;1100;103189;-69
2021/05/18 16:12:10;;;;;;;14.20;11.90;;;;;;;12.50;73.75;99287.38;153938;1094;103192;-71
2021/05/18 16:15:15;;;;;;;10.27;8.80;;;;;;;12.54;73.90;99291.33;153891;1093;103155;-72
2021/05/18 16:18:18;;;;;;;8.50;6.45;;;;;;;12.49;74.93;99291.09;153909;1093;103150;-69
2021/05/18 16:21:23;;;;;;;15.10;11.60;;;;;;;12.39;74.28;99301.24;153831;1094;103681;-71
2021/05/18 16:24:27;;;;;;;7.70;5.70;;;;;;;12.32;74.57;99293.16;153810;1100;103206;-71
2021/05/18 16:27:30;;;;;;;14.25;9.75;;;;;;;12.32;75.14;99292.33;153882;1100;103121;-71
2021/05/18 16:30:34;;;;;;;25.90;15.80;;;;;;;12.27;75.33;99297.41;153901;1100;103070;-69
2021/05/18 16:33:39;;;;;;;7.40;4.90;;;;;;;12.22;75.25;99303.33;153922;1093;103192;-70
2021/05/18 16:36:42;;;;;;;7.63;5.50;;;;;;;12.13;75.95;99313.28;153838;1100;103189;-67
2021/05/18 16:39:46;;;;;;;6.13;4.17;;;;;;;12.09;74.48;99311.19;153874;1093;103372;-71
2021/05/18 16:42:49;;;;;;;6.23;4.13;;;;;;;12.08;75.84;99313.00;154073;1100;103188;-71
2021/05/18 16:45:54;;;;;;;6.50;4.40;;;;;;;12.06;75.48;99315.03;153898;1100;103201;-75
2021/05/18 16:48:57;;;;;;;8.60;6.60;;;;;;;12.08;75.00;99313.00;154049;1100;103125;-71
2021/05/18 16:52:02;;;;;;;7.93;5.50;;;;;;;12.06;75.51;99316.89;154952;1100;103184;-72
2021/05/18 16:55:08;;;;;;;7.60;4.97;;;;;;;12.05;75.92;99315.22;154425;1100;103547;-73
2021/05/18 16:58:12;;;;;;;6.03;3.80;;;;;;;12.04;75.55;99334.97;154163;1100;103468;-74
2021/05/18 17:01:15;;;;;;;5.73;3.70;;;;;;;11.98;76.69;99323.16;154089;1093;103133;-73
2021/05/18 17:04:19;;;;;;;4.93;3.73;;;;;;;12.00;76.32;99323.80;154020;1100;103243;-73
2021/05/18 17:07:22;;;;;;;4.87;4.33;;;;;;;12.02;77.24;99332.47;154111;1100;103235;-74
2021/05/18 17:10:26;;;;;;;6.43;4.10;;;;;;;12.03;76.46;99327.95;154034;1093;103233;-73
2021/05/18 17:13:30;;;;;;;6.13;4.40;;;;;;;12.01;76.31;99329.97;154017;1094;103126;-73
2021/05/18 17:16:33;;;;;;;15.10;10.30;;;;;;;11.94;76.08;99330.72;154091;1093;103101;-72
2021/05/18 17:19:37;;;;;;;11.50;7.25;;;;;;;11.98;75.90;99333.86;154045;1100;103123;-73
2021/05/18 17:22:41;;;;;;;62.40;41.03;;;;;;;11.98;75.60;99339.20;154164;1100;103339;-73
2021/05/18 17:25:45;;;;;;;93.13;57.40;;;;;;;12.00;75.87;99341.70;154043;1093;103298;-72
2021/05/18 17:28:48;;;;;;;47.67;30.20;;;;;;;11.95;76.48;99347.58;154486;1100;103114;-73
2021/05/18 17:31:52;;;;;;;13.27;8.27;;;;;;;11.92;76.73;99348.79;154091;1101;103205;-73
2021/05/18 17:34:55;;;;;;;24.75;16.55;;;;;;;11.96;76.59;99343.91;154035;1094;103141;-73
2021/05/18 17:37:59;;;;;;;15.30;10.17;;;;;;;12.00;75.86;99347.88;154202;1093;103128;-76
2021/05/18 17:41:03;;;;;;;7.43;5.20;;;;;;;12.03;76.72;99350.19;154030;1093;103141;-72
2021/05/18 17:44:07;;;;;;;12.37;9.07;;;;;;;12.00;77.86;99353.22;154020;1101;103196;-73
2021/05/18 17:47:11;;;;;;;7.55;5.60;;;;;;;11.87;77.51;99342.30;154067;1093;103196;-72
2021/05/18 17:50:16;;;;;;;5.50;3.87;;;;;;;11.83;77.38;99349.03;154000;1093;103121;-75
2021/05/18 17:53:20;;;;;;;4.83;3.30;;;;;;;11.84;76.76;99359.55;154438;1100;103529;-75
2021/05/18 17:56:24;;;;;;;4.90;3.50;;;;;;;11.84;76.18;99362.22;153995;1093;103189;-76
2021/05/18 17:59:27;;;;;;;5.13;3.83;;;;;;;11.87;77.11;99361.02;154033;1100;103193;-77
2021/05/18 18:02:31;;;;;;;17.87;11.37;;;;;;;11.81;76.86;99361.75;153988;1093;103509;-76
2021/05/18 18:05:34;;;;;;;4.90;3.53;;;;;;;11.72;77.68;99358.32;153955;1100;103189;-75
2021/05/18 18:08:40;;;;;;;6.00;3.20;;;;;;;11.75;77.35;99360.64;154054;1093;103110;-74
2021/05/18 18:11:44;;;;;;;5.73;4.00;;;;;;;11.84;77.57;99361.40;154046;1100;103187;-75
2021/05/18 18:14:48;;;;;;;4.93;3.43;;;;;;;11.80;77.42;99358.26;154083;1093;103167;-76
2021/05/18 18:17:51;;;;;;;6.10;3.93;;;;;;;11.84;76.98;99356.88;154025;1100;103138;-75
2021/05/18 18:20:55;;;;;;;6.63;4.60;;;;;;;11.84;76.78;99356.88;154026;1100;103134;-76
2021/05/18 18:23:59;;;;;;;5.93;4.20;;;;;;;11.82;76.71;99368.74;154108;1093;103108;-74
2021/05/18 18:27:02;;;;;;;9.20;6.47;;;;;;;11.82;77.25;99366.06;154122;1100;103206;-76
2021/05/18 18:30:08;;;;;;;6.40;4.45;;;;;;;11.80;77.49;99371.63;154070;1100;103216;-76